Time;durP1;ratioP1;P1;durP2;ratioP2;P2;SDS_P1;SDS_P2;PMS_P1;PMS_P2;Temp;Humidity;BMP_temperature;BMP_pressure;BME280_temperature;BME280_humidity;BME280_pressure;Samples;Min_cycle;Max_cycle;Signal;HPM_P1;HPM_P2
2022/10/08 00:00:16;;;;;;;1.83;1.73;;;15.10;99.90;;;;;;5010638;28;20843;-65
2022/10/08 00:02:43;;;;;;;1.53;1.40;;;15.10;99.90;;;;;;5009087;28;20209;-64
2022/10/08 00:05:10;;;;;;;1.30;1.30;;;15.00;99.90;;;;;;5011238;28;20667;-65
2022/10/08 00:07:37;;;;;;;1.33;1.33;;;15.00;99.90;;;;;;5008075;28;20305;-65
2022/10/08 00:10:06;;;;;;;1.63;1.50;;;14.90;99.90;;;;;;5009374;28;20216;-65
2022/10/08 00:12:34;;;;;;;1.65;1.55;;;14.90;99.90;;;;;;5012885;28;20197;-65
2022/10/08 00:15:01;;;;;;;1.27;1.17;;;15.00;99.90;;;;;;5009867;28;20209;-65
2022/10/08 00:17:28;;;;;;;1.53;1.43;;;14.90;99.90;;;;;;5012625;28;20227;-65
2022/10/08 00:19:56;;;;;;;1.50;1.40;;;14.90;99.90;;;;;;5001947;28;20231;-66
2022/10/08 00:22:23;;;;;;;2.83;1.40;;;15.00;99.90;;;;;;4999255;28;20209;-65
2022/10/08 00:24:52;;;;;;;2.23;1.73;;;14.90;99.90;;;;;;5003510;28;20648;-64
2022/10/08 00:27:22;;;;;;;1.60;1.50;;;14.90;99.90;;;;;;5002434;28;20201;-64
2022/10/08 00:29:51;;;;;;;2.23;1.60;;;15.00;99.90;;;;;;5005654;28;20688;-64
2022/10/08 00:32:18;;;;;;;1.60;1.50;;;15.00;99.90;;;;;;4998747;28;20264;-64
2022/10/08 00:34:45;;;;;;;1.50;1.40;;;15.20;99.90;;;;;;5007139;28;20213;-65
2022/10/08 00:37:14;;;;;;;1.50;1.40;;;15.00;99.90;;;;;;5019104;28;20296;-66
2022/10/08 00:39:41;;;;;;;1.30;1.30;;;15.00;99.90;;;;;;5030888;28;20252;-65
2022/10/08 00:42:10;;;;;;;1.70;1.60;;;15.00;99.90;;;;;;5012751;28;20201;-65
2022/10/08 00:44:54;;;;;;;1.50;1.40;;;15.00;99.90;;;;;;5012890;28;20208;-65
2022/10/08 00:47:33;;;;;;;1.50;1.40;;;15.00;99.90;;;;;;5004903;28;20209;-63
2022/10/08 00:50:05;;;;;;;1.70;1.60;;;15.10;99.90;;;;;;5009991;28;20209;-65
2022/10/08 00:52:34;;;;;;;1.40;1.30;;;15.20;99.90;;;;;;5007108;28;20288;-64
2022/10/08 00:55:05;;;;;;;1.50;1.40;;;15.20;99.90;;;;;;5011649;28;20670;-66
2022/10/08 00:57:33;;;;;;;1.50;1.37;;;15.20;99.90;;;;;;5012421;28;20217;-63
2022/10/08 01:00:02;;;;;;;1.60;1.50;;;15.20;99.90;;;;;;5010864;28;20209;-64
2022/10/08 01:02:29;;;;;;;1.70;1.20;;;15.20;99.90;;;;;;5008054;28;20213;-65
2022/10/08 01:04:56;;;;;;;1.57;1.47;;;15.20;99.90;;;;;;5001699;28;20738;-64
2022/10/08 01:07:29;;;;;;;1.30;1.20;;;15.20;99.90;;;;;;5000893;28;20248;-65
2022/10/08 01:10:02;;;;;;;1.50;1.37;;;15.30;99.90;;;;;;4997241;28;20239;-66
2022/10/08 01:12:43;;;;;;;2.73;1.50;;;15.20;99.90;;;;;;5046621;22;20763;-65
2022/10/08 01:15:22;;;;;;;1.63;1.27;;;15.20;99.90;;;;;;5055404;28;20269;-65
2022/10/08 01:17:58;;;;;;;1.57;1.47;;;15.20;99.90;;;;;;5052341;28;20219;-64
2022/10/08 01:20:36;;;;;;;1.50;1.40;;;15.30;99.90;;;;;;5058676;28;20471;-65
2022/10/08 01:23:40;;;;;;;1.73;1.40;;;15.40;99.90;;;;;;5078434;28;20223;-65
2022/10/08 01:26:22;;;;;;;1.53;1.43;;;15.30;99.90;;;;;;5075999;28;20207;-65
2022/10/08 01:28:55;;;;;;;1.43;1.33;;;15.30;99.90;;;;;;5072591;28;20646;-65
2022/10/08 01:31:28;;;;;;;1.50;1.40;;;15.30;99.90;;;;;;5076308;28;20203;-65
2022/10/08 01:33:59;;;;;;;1.77;1.43;;;15.30;99.90;;;;;;5072048;28;20214;-65
2022/10/08 01:36:29;;;;;;;1.30;1.30;;;15.10;99.90;;;;;;5073783;28;20204;-64
2022/10/08 01:39:00;;;;;;;1.50;1.40;;;15.20;99.90;;;;;;5079051;28;20205;-65
2022/10/08 01:41:30;;;;;;;1.20;1.20;;;15.30;99.90;;;;;;5076069;28;20662;-66
2022/10/08 01:44:02;;;;;;;1.30;1.20;;;15.40;99.90;;;;;;5073078;28;20206;-65
2022/10/08 01:46:31;;;;;;;1.20;1.20;;;15.40;99.90;;;;;;5071836;28;20211;-65
2022/10/08 01:49:03;;;;;;;2.33;1.20;;;15.50;99.90;;;;;;5073589;28;20211;-65
2022/10/08 01:51:34;;;;;;;1.37;1.27;;;15.50;99.90;;;;;;5070032;28;20231;-65
2022/10/08 01:54:05;;;;;;;1.60;1.50;;;15.60;99.90;;;;;;5072733;28;20564;-64
2022/10/08 01:56:36;;;;;;;1.80;1.43;;;15.60;99.90;;;;;;5062478;28;20208;-64
2022/10/08 01:59:09;;;;;;;1.40;1.30;;;15.60;99.90;;;;;;5072047;28;20238;-64
2022/10/08 02:01:42;;;;;;;1.53;1.27;;;15.60;99.90;;;;;;5074080;28;20204;-67
2022/10/08 02:06:56;;;;;;;1.67;1.40;;;15.70;99.90;;;;;;5073242;28;20337;-64
2022/10/08 02:09:25;;;;;;;1.30;1.20;;;15.70;99.90;;;;;;5068625;28;20214;-64
2022/10/08 02:11:53;;;;;;;1.80;1.40;;;15.70;99.90;;;;;;5072753;28;20231;-64
2022/10/08 02:14:24;;;;;;;1.20;1.20;;;15.80;99.90;;;;;;5066469;28;20196;-64
2022/10/08 02:16:58;;;;;;;1.27;1.27;;;15.80;99.90;;;;;;5073345;28;20200;-65
2022/10/08 02:19:34;;;;;;;1.40;1.30;;;15.70;99.90;;;;;;5070127;28;20291;-66
2022/10/08 02:22:03;;;;;;;1.50;1.40;;;15.70;99.90;;;;;;5072271;28;20223;-65
2022/10/08 02:24:37;;;;;;;1.40;1.37;;;15.70;99.90;;;;;;5068306;28;20561;-65
2022/10/08 02:27:08;;;;;;;1.13;1.13;;;15.80;99.90;;;;;;5069644;28;20665;-65
2022/10/08 02:29:41;;;;;;;3.50;1.50;;;15.80;99.90;;;;;;5062536;28;20200;-65
2022/10/08 02:32:13;;;;;;;1.50;1.40;;;15.80;99.90;;;;;;5069157;28;20227;-64
2022/10/08 02:34:47;;;;;;;1.50;1.30;;;15.80;99.90;;;;;;5064362;28;20200;-65
2022/10/08 02:37:19;;;;;;;1.50;1.40;;;15.70;99.90;;;;;;5065691;28;20207;-66
2022/10/08 02:39:50;;;;;;;1.50;1.40;;;15.70;99.90;;;;;;5068876;28;20210;-65
2022/10/08 02:42:21;;;;;;;1.60;1.50;;;15.60;99.90;;;;;;5068553;28;20219;-65
2022/10/08 02:44:53;;;;;;;1.30;1.20;;;15.60;99.90;;;;;;5084044;28;20226;-63
2022/10/08 02:47:24;;;;;;;2.03;1.57;;;15.60;99.90;;;;;;5075445;28;20255;-65
2022/10/08 02:49:55;;;;;;;1.58;1.20;;;15.70;99.90;;;;;;5070703;28;20400;-64
2022/10/08 02:52:26;;;;;;;3.03;1.43;;;15.70;99.90;;;;;;5073503;28;20227;-65
2022/10/08 02:54:55;;;;;;;1.20;1.20;;;16.00;99.90;;;;;;5067686;28;20570;-65
2022/10/08 02:57:26;;;;;;;1.50;1.40;;;15.80;99.90;;;;;;5072118;28;20223;-64
2022/10/08 02:59:55;;;;;;;1.67;1.57;;;15.80;99.90;;;;;;5071138;28;20203;-65
2022/10/08 03:02:27;;;;;;;1.67;1.57;;;15.70;99.90;;;;;;5077876;28;20298;-65
2022/10/08 03:05:00;;;;;;;1.60;1.33;;;15.60;99.90;;;;;;5078750;28;20278;-65
2022/10/08 03:07:29;;;;;;;1.70;1.50;;;15.60;99.90;;;;;;5066333;28;20200;-64
2022/10/08 03:09:58;;;;;;;2.00;1.80;;;15.60;99.90;;;;;;5072535;28;20205;-65
2022/10/08 03:12:25;;;;;;;2.50;2.00;;;15.60;99.90;;;;;;5070824;28;20576;-66
2022/10/08 03:14:53;;;;;;;2.17;2.03;;;15.60;99.90;;;;;;5080521;28;20668;-65
2022/10/08 03:17:24;;;;;;;1.70;1.60;;;15.60;99.90;;;;;;5087997;28;20261;-66
2022/10/08 03:19:52;;;;;;;1.77;1.67;;;15.60;99.90;;;;;;5084957;28;20207;-64
2022/10/08 03:22:19;;;;;;;2.23;1.70;;;15.70;99.90;;;;;;5073671;28;20234;-65
2022/10/08 03:24:45;;;;;;;1.60;1.50;;;15.70;99.90;;;;;;5079574;28;20199;-65
2022/10/08 03:27:13;;;;;;;2.17;1.80;;;15.60;99.90;;;;;;5064601;28;20204;-66
2022/10/08 03:29:40;;;;;;;1.80;1.70;;;15.60;99.90;;;;;;5074187;28;20282;-64
2022/10/08 03:32:09;;;;;;;1.87;1.77;;;15.60;99.90;;;;;;5070226;28;20262;-65
2022/10/08 03:34:36;;;;;;;2.07;1.87;;;15.60;99.90;;;;;;5073974;28;20196;-64
2022/10/08 03:37:03;;;;;;;1.60;1.50;;;15.70;99.90;;;;;;5078881;28;20203;-65
2022/10/08 03:39:29;;;;;;;1.93;1.83;;;15.70;99.90;;;;;;5078351;28;20572;-65
2022/10/08 03:41:56;;;;;;;2.73;2.10;;;15.80;99.90;;;;;;5081427;28;20225;-66
2022/10/08 03:44:23;;;;;;;2.10;1.73;;;15.80;99.90;;;;;;5071041;28;20199;-65
2022/10/08 03:46:50;;;;;;;2.10;1.90;;;15.90;99.90;;;;;;5075508;28;20211;-65
2022/10/08 03:49:18;;;;;;;1.80;1.70;;;15.90;99.90;;;;;;5082259;28;20195;-65
2022/10/08 03:51:45;;;;;;;1.80;1.70;;;15.90;99.90;;;;;;5073513;28;20219;-65
2022/10/08 03:54:12;;;;;;;1.97;1.87;;;16.10;99.90;;;;;;5079920;28;20294;-66
2022/10/08 03:56:38;;;;;;;1.80;1.70;;;16.00;99.90;;;;;;5072036;28;20226;-65
2022/10/08 03:59:05;;;;;;;1.83;1.73;;;16.10;99.90;;;;;;5069888;28;20656;-65
2022/10/08 04:01:32;;;;;;;2.03;1.90;;;16.10;99.90;;;;;;5071662;28;20207;-66
2022/10/08 04:03:59;;;;;;;2.00;1.90;;;16.10;99.90;;;;;;5079981;28;20692;-65
2022/10/08 04:06:27;;;;;;;2.20;2.00;;;16.10;99.90;;;;;;5084162;28;20290;-66
2022/10/08 04:08:59;;;;;;;1.70;1.60;;;16.10;99.90;;;;;;5073781;28;20204;-65
2022/10/08 04:11:27;;;;;;;2.00;1.90;;;16.20;99.90;;;;;;5078361;28;20203;-66
2022/10/08 04:13:54;;;;;;;1.80;1.70;;;16.10;99.90;;;;;;5068715;28;20199;-65
2022/10/08 04:16:21;;;;;;;2.10;2.00;;;16.10;99.90;;;;;;5074233;28;20202;-65
2022/10/08 04:18:48;;;;;;;1.80;1.70;;;16.10;99.90;;;;;;5077806;28;20215;-65
2022/10/08 04:21:17;;;;;;;2.50;2.30;;;16.10;99.90;;;;;;5074541;28;20204;-65
2022/10/08 04:23:45;;;;;;;1.90;1.70;;;16.10;99.90;;;;;;5077090;28;20223;-65
2022/10/08 04:26:14;;;;;;;2.27;2.17;;;16.10;99.90;;;;;;5070380;28;20238;-66
2022/10/08 04:28:43;;;;;;;1.90;1.80;;;16.00;99.90;;;;;;5076235;28;20579;-65
2022/10/08 04:31:12;;;;;;;1.90;1.80;;;16.00;99.90;;;;;;5066060;28;20629;-66
2022/10/08 04:33:39;;;;;;;1.50;1.50;;;16.00;99.90;;;;;;5082630;28;20218;-66
2022/10/08 04:36:08;;;;;;;1.80;1.70;;;16.00;99.90;;;;;;5071905;28;20203;-65
2022/10/08 04:38:35;;;;;;;1.90;1.80;;;16.00;99.90;;;;;;5079672;28;20306;-65
2022/10/08 04:41:05;;;;;;;1.80;1.70;;;16.00;99.90;;;;;;5071684;28;20249;-65
2022/10/08 04:43:32;;;;;;;1.70;1.60;;;16.00;99.90;;;;;;5061980;28;20219;-67
2022/10/08 04:45:59;;;;;;;2.00;1.90;;;16.10;99.90;;;;;;5062938;28;20222;-65
2022/10/08 04:48:26;;;;;;;2.10;2.00;;;16.10;99.90;;;;;;5085354;28;20226;-66
2022/10/08 04:50:56;;;;;;;2.10;1.93;;;16.00;99.90;;;;;;5094304;28;20202;-65
2022/10/08 04:53:24;;;;;;;2.10;2.00;;;16.00;99.90;;;;;;5072963;28;20306;-64
2022/10/08 04:55:51;;;;;;;2.40;2.20;;;16.00;99.90;;;;;;5067304;28;20206;-67
2022/10/08 04:58:19;;;;;;;2.00;1.90;;;16.00;99.90;;;;;;5074807;28;20583;-65
2022/10/08 05:00:46;;;;;;;1.90;1.80;;;16.00;99.90;;;;;;5076250;28;20203;-66
2022/10/08 05:03:13;;;;;;;1.80;1.70;;;16.00;99.90;;;;;;5064278;28;20215;-66
2022/10/08 05:05:40;;;;;;;1.90;1.80;;;16.00;99.90;;;;;;5073458;28;20290;-67
2022/10/08 05:08:07;;;;;;;1.70;1.60;;;16.10;99.90;;;;;;5066649;28;20545;-67
2022/10/08 05:10:35;;;;;;;1.80;1.70;;;16.20;99.90;;;;;;5082654;28;20203;-64
2022/10/08 05:13:02;;;;;;;2.00;1.73;;;16.10;99.90;;;;;;5073620;28;20244;-65
2022/10/08 05:15:30;;;;;;;1.90;1.80;;;16.20;99.90;;;;;;5072884;28;20570;-65
2022/10/08 05:17:57;;;;;;;1.87;1.77;;;16.10;99.90;;;;;;5076844;28;20269;-67
2022/10/08 05:20:24;;;;;;;1.80;1.70;;;16.10;99.90;;;;;;5075999;28;20676;-65
2022/10/08 05:22:50;;;;;;;1.60;1.50;;;16.10;99.90;;;;;;5082584;28;20225;-66
2022/10/08 05:25:17;;;;;;;1.70;1.60;;;16.30;99.90;;;;;;5074821;28;20195;-67
2022/10/08 05:27:44;;;;;;;2.00;1.90;;;16.10;99.90;;;;;;5087946;28;20672;-67
2022/10/08 05:30:11;;;;;;;1.67;1.57;;;16.10;99.90;;;;;;5091037;28;20266;-66
2022/10/08 05:32:40;;;;;;;1.60;1.50;;;16.10;99.90;;;;;;5108025;28;20343;-64
2022/10/08 05:35:07;;;;;;;1.90;1.80;;;16.10;99.90;;;;;;5085101;28;20267;-64
2022/10/08 05:37:34;;;;;;;1.77;1.67;;;16.00;99.90;;;;;;5083401;28;20229;-67
2022/10/08 05:40:01;;;;;;;1.83;1.73;;;16.00;99.90;;;;;;5083360;28;20214;-66
2022/10/08 05:42:28;;;;;;;1.73;1.63;;;15.90;99.90;;;;;;5076646;28;20225;-65
2022/10/08 05:44:54;;;;;;;1.70;1.60;;;15.90;99.90;;;;;;5081905;28;20195;-66
2022/10/08 05:47:21;;;;;;;1.93;1.83;;;15.90;99.90;;;;;;5072715;28;20199;-66
2022/10/08 05:49:49;;;;;;;1.80;1.70;;;15.90;99.90;;;;;;5077095;28;20196;-66
2022/10/08 05:52:16;;;;;;;1.60;1.50;;;15.90;99.90;;;;;;5068495;28;20223;-66
2022/10/08 05:54:43;;;;;;;1.80;1.70;;;15.90;99.90;;;;;;5075315;28;20204;-65
2022/10/08 05:57:10;;;;;;;1.93;1.83;;;15.90;99.90;;;;;;5081599;28;20203;-67
2022/10/08 05:59:37;;;;;;;1.80;1.70;;;16.00;99.90;;;;;;5077458;28;20223;-65
2022/10/08 06:02:04;;;;;;;1.90;1.80;;;16.00;99.90;;;;;;5075981;28;20227;-67
2022/10/08 06:04:31;;;;;;;1.67;1.57;;;16.00;99.90;;;;;;5070835;28;20200;-67
2022/10/08 06:06:59;;;;;;;1.70;1.60;;;16.10;99.90;;;;;;5085671;28;20548;-66
2022/10/08 06:09:25;;;;;;;1.80;1.70;;;16.10;99.90;;;;;;5079550;28;20195;-66
2022/10/08 06:11:52;;;;;;;2.03;1.90;;;16.10;99.90;;;;;;5076342;28;20321;-66
2022/10/08 06:14:19;;;;;;;1.93;1.60;;;16.10;99.90;;;;;;5074212;28;20579;-65
2022/10/08 06:16:46;;;;;;;1.70;1.60;;;16.10;99.90;;;;;;5087529;28;20206;-65
2022/10/08 06:19:13;;;;;;;2.07;1.87;;;16.10;99.90;;;;;;5072915;28;20310;-67
2022/10/08 06:21:40;;;;;;;1.80;1.70;;;16.10;99.90;;;;;;5068404;28;20214;-67
2022/10/08 06:24:11;;;;;;;1.70;1.60;;;16.10;99.90;;;;;;5072054;28;20208;-65
2022/10/08 06:26:39;;;;;;;1.83;1.73;;;16.10;99.90;;;;;;5074223;28;20207;-65
2022/10/08 06:29:07;;;;;;;1.60;1.50;;;16.10;99.90;;;;;;5077387;28;20199;-66
2022/10/08 06:31:34;;;;;;;1.30;1.30;;;16.10;99.90;;;;;;5077673;28;20208;-65
2022/10/08 06:34:03;;;;;;;1.60;1.50;;;16.10;99.90;;;;;;5072053;28;20203;-67
2022/10/08 06:36:30;;;;;;;1.70;1.60;;;16.10;99.90;;;;;;5063119;28;20200;-65
2022/10/08 06:38:58;;;;;;;1.97;1.60;;;16.10;99.90;;;;;;5071034;28;20727;-65
2022/10/08 06:41:29;;;;;;;1.90;1.80;;;16.40;99.90;;;;;;5066500;28;20246;-65
2022/10/08 06:43:55;;;;;;;1.90;1.80;;;16.20;99.90;;;;;;5072338;28;20580;-67
2022/10/08 06:46:22;;;;;;;1.70;1.60;;;16.20;99.90;;;;;;5062716;28;20203;-65
2022/10/08 06:48:49;;;;;;;2.20;1.60;;;16.10;99.90;;;;;;5068230;28;20195;-66
2022/10/08 06:51:18;;;;;;;1.80;1.70;;;16.20;99.90;;;;;;5064731;28;20200;-68
2022/10/08 06:53:50;;;;;;;2.80;2.23;;;16.30;99.90;;;;;;5074747;28;20664;-64
2022/10/08 06:56:17;;;;;;;1.80;1.70;;;16.30;99.90;;;;;;5078802;28;20263;-66
2022/10/08 06:58:46;;;;;;;1.70;1.60;;;16.30;99.90;;;;;;5083024;28;20227;-67
2022/10/08 07:01:15;;;;;;;1.80;1.70;;;16.30;99.90;;;;;;5084544;28;20199;-68
2022/10/08 07:03:42;;;;;;;1.80;1.70;;;16.30;99.90;;;;;;5081526;28;20216;-66
2022/10/08 07:06:11;;;;;;;1.60;1.50;;;16.40;99.90;;;;;;5087675;28;20207;-66
2022/10/08 07:08:39;;;;;;;1.87;1.53;;;16.50;99.90;;;;;;5081069;28;20199;-67
2022/10/08 07:11:07;;;;;;;2.10;1.70;;;16.50;99.90;;;;;;5079204;28;20198;-67
2022/10/08 07:13:34;;;;;;;1.43;1.40;;;16.50;99.90;;;;;;5072444;28;20227;-67
2022/10/08 07:16:03;;;;;;;1.80;1.70;;;16.70;99.90;;;;;;5077838;28;20217;-66
2022/10/08 07:18:30;;;;;;;1.63;1.53;;;16.60;99.90;;;;;;5082761;28;20215;-65
2022/10/08 07:20:58;;;;;;;1.40;1.30;;;16.50;99.90;;;;;;5073222;28;20203;-64
2022/10/08 07:23:24;;;;;;;2.13;1.90;;;16.50;99.90;;;;;;5066704;28;20230;-66
2022/10/08 07:25:56;;;;;;;1.67;1.57;;;16.50;99.90;;;;;;5060409;28;20207;-66
2022/10/08 07:28:23;;;;;;;1.70;1.60;;;16.60;99.90;;;;;;5079997;28;20656;-66
2022/10/08 07:30:50;;;;;;;1.50;1.40;;;16.60;99.90;;;;;;5070154;28;20199;-67
2022/10/08 07:33:18;;;;;;;1.60;1.50;;;16.70;99.90;;;;;;5079379;28;20310;-67
2022/10/08 07:35:45;;;;;;;1.70;1.60;;;16.60;99.90;;;;;;5079018;28;20248;-68
2022/10/08 07:38:12;;;;;;;1.90;1.70;;;16.70;99.90;;;;;;5065598;28;20202;-65
2022/10/08 07:40:39;;;;;;;2.20;1.70;;;16.70;99.90;;;;;;5079276;28;20209;-66
2022/10/08 07:43:06;;;;;;;1.50;1.37;;;16.80;99.90;;;;;;5070517;28;20231;-65
2022/10/08 07:45:32;;;;;;;1.47;1.37;;;16.80;99.90;;;;;;5078547;28;20207;-65
2022/10/08 07:47:59;;;;;;;1.37;1.37;;;16.90;99.90;;;;;;5063576;28;20643;-66
2022/10/08 07:50:27;;;;;;;1.60;1.50;;;17.00;99.90;;;;;;5069565;28;20231;-64
2022/10/08 07:52:54;;;;;;;1.20;1.20;;;17.10;99.90;;;;;;5068451;28;20618;-65
2022/10/08 07:55:21;;;;;;;1.87;1.40;;;17.20;99.90;;;;;;5066571;28;20199;-68
2022/10/08 07:57:48;;;;;;;1.40;1.30;;;17.10;99.90;;;;;;5068278;28;20748;-66
2022/10/08 08:00:15;;;;;;;1.30;1.20;;;17.10;99.90;;;;;;5068596;28;20221;-65
2022/10/08 08:02:42;;;;;;;1.38;1.27;;;17.10;99.90;;;;;;5068364;28;20722;-68
2022/10/08 08:05:09;;;;;;;1.50;1.40;;;17.10;99.90;;;;;;5062452;28;20283;-65
2022/10/08 08:07:37;;;;;;;1.40;1.30;;;17.10;99.90;;;;;;5058450;28;20573;-66
2022/10/08 08:10:04;;;;;;;1.30;1.20;;;17.20;99.90;;;;;;5057884;28;20282;-65
2022/10/08 08:12:31;;;;;;;1.40;1.30;;;17.20;99.90;;;;;;5061577;28;20714;-65
2022/10/08 08:14:58;;;;;;;1.30;1.20;;;17.40;99.90;;;;;;5064475;28;20207;-66
2022/10/08 08:17:25;;;;;;;1.53;1.43;;;17.50;99.90;;;;;;5062303;28;20290;-65
2022/10/08 08:19:51;;;;;;;1.20;1.20;;;17.60;99.90;;;;;;5061908;28;20219;-64
2022/10/08 08:22:18;;;;;;;1.27;1.17;;;17.70;99.90;;;;;;5065007;28;20224;-65
2022/10/08 08:24:47;;;;;;;2.50;1.40;;;17.70;99.90;;;;;;5068669;28;20221;-65
2022/10/08 08:27:13;;;;;;;1.17;1.17;;;17.60;99.90;;;;;;5072100;28;20218;-65
2022/10/08 08:29:40;;;;;;;1.53;1.43;;;17.50;99.90;;;;;;5070600;28;20282;-66
2022/10/08 08:32:08;;;;;;;1.10;1.10;;;17.40;99.90;;;;;;5068250;28;20227;-65
2022/10/08 08:34:34;;;;;;;1.20;1.20;;;17.40;99.90;;;;;;5073686;28;20203;-68
2022/10/08 08:37:01;;;;;;;1.37;1.27;;;17.30;99.90;;;;;;5070355;28;20294;-67
2022/10/08 08:39:30;;;;;;;1.20;1.10;;;17.30;99.90;;;;;;5072923;28;20215;-68
2022/10/08 08:42:26;;;;;;;1.17;1.10;;;17.30;99.90;;;;;;5071904;28;20215;-67
2022/10/08 08:44:58;;;;;;;1.10;1.00;;;17.40;99.90;;;;;;5070356;28;20250;-66
2022/10/08 08:47:32;;;;;;;1.27;1.10;;;17.60;99.90;;;;;;5061683;28;20211;-66
2022/10/08 08:50:01;;;;;;;1.07;1.07;;;17.90;99.90;;;;;;5067164;28;20195;-65
2022/10/08 08:52:32;;;;;;;1.63;1.00;;;18.00;99.90;;;;;;5073884;28;20219;-64
2022/10/08 08:55:00;;;;;;;1.20;1.10;;;18.20;99.90;;;;;;5082782;28;20234;-65
2022/10/08 08:57:36;;;;;;;1.27;1.17;;;18.50;99.90;;;;;;5081012;28;20200;-67
2022/10/08 09:00:07;;;;;;;1.40;1.27;;;18.50;99.90;;;;;;5070573;28;20317;-66
2022/10/08 09:02:38;;;;;;;1.40;1.30;;;18.40;99.90;;;;;;5071393;28;20590;-67
2022/10/08 09:05:10;;;;;;;1.70;1.50;;;18.40;99.90;;;;;;5069945;28;20538;-67
2022/10/08 09:07:42;;;;;;;1.33;1.23;;;18.60;99.90;;;;;;5061923;28;20286;-65
2022/10/08 09:10:15;;;;;;;1.50;1.40;;;18.70;99.90;;;;;;5069379;28;20202;-67
2022/10/08 09:12:44;;;;;;;1.30;1.20;;;18.70;99.90;;;;;;5069456;28;20228;-65
2022/10/08 09:15:17;;;;;;;1.50;1.40;;;18.80;99.90;;;;;;5070720;28;20203;-67
2022/10/08 09:17:46;;;;;;;1.27;1.20;;;18.60;99.90;;;;;;5067988;28;20247;-66
2022/10/08 09:20:15;;;;;;;1.90;1.40;;;18.40;99.90;;;;;;5065419;28;20870;-65
2022/10/08 09:22:44;;;;;;;1.33;1.20;;;18.30;99.90;;;;;;5059443;28;20765;-67
2022/10/08 09:25:14;;;;;;;1.17;1.10;;;18.60;99.90;;;;;;5071393;28;20205;-66
2022/10/08 09:27:50;;;;;;;1.43;1.33;;;18.80;99.90;;;;;;5069908;28;20223;-67
2022/10/08 09:30:29;;;;;;;1.40;1.30;;;18.80;99.90;;;;;;5054096;28;20203;-66
2022/10/08 09:33:00;;;;;;;1.93;1.40;;;19.00;99.90;;;;;;5076443;28;20587;-67
2022/10/08 09:35:27;;;;;;;1.43;1.33;;;19.10;99.90;;;;;;5077235;28;20199;-66
2022/10/08 09:37:55;;;;;;;1.40;1.30;;;18.90;99.90;;;;;;5069211;28;20210;-67
2022/10/08 09:40:23;;;;;;;1.37;1.30;;;19.00;99.90;;;;;;5068681;28;20310;-66
2022/10/08 09:43:12;;;;;;;1.40;1.30;;;18.90;99.90;;;;;;5074344;28;20230;-66
2022/10/08 09:45:41;;;;;;;1.60;1.40;;;19.00;99.90;;;;;;5070861;28;20582;-66
2022/10/08 09:48:17;;;;;;;1.30;1.20;;;18.90;99.90;;;;;;5064076;28;20291;-66
2022/10/08 09:50:50;;;;;;;1.20;1.15;;;18.90;99.90;;;;;;5075434;28;20205;-66
2022/10/08 09:53:17;;;;;;;1.40;1.27;;;18.90;99.90;;;;;;5062244;28;20594;-67
2022/10/08 09:55:52;;;;;;;1.30;1.20;;;19.00;99.90;;;;;;5086489;28;20207;-66
2022/10/08 09:58:20;;;;;;;1.85;1.65;;;19.10;99.90;;;;;;5060292;28;20210;-66
2022/10/08 10:00:57;;;;;;;1.07;1.00;;;19.00;99.90;;;;;;5075360;28;20571;-66
2022/10/08 10:03:26;;;;;;;2.07;1.40;;;19.10;99.90;;;;;;5060619;28;20225;-67
2022/10/08 10:05:55;;;;;;;1.30;1.20;;;19.20;99.90;;;;;;5069617;28;20199;-67
2022/10/08 10:08:45;;;;;;;1.40;1.30;;;19.30;99.90;;;;;;5076520;28;20290;-66
2022/10/08 10:11:14;;;;;;;1.40;1.30;;;19.30;99.90;;;;;;5073866;28;20384;-66
2022/10/08 10:13:45;;;;;;;1.80;1.70;;;19.50;99.90;;;;;;5072933;28;20234;-66
2022/10/08 10:16:17;;;;;;;1.30;1.20;;;19.80;99.90;;;;;;5072187;28;20290;-68
2022/10/08 10:18:52;;;;;;;1.40;1.30;;;19.70;99.90;;;;;;5062871;28;20681;-68
2022/10/08 10:21:23;;;;;;;1.13;1.13;;;19.40;99.90;;;;;;5077866;28;20222;-67
2022/10/08 10:24:04;;;;;;;1.88;1.15;;;19.30;99.90;;;;;;5087505;28;20211;-67
2022/10/08 10:26:37;;;;;;;1.10;1.10;;;19.30;99.90;;;;;;5069223;28;20198;-65
2022/10/08 10:29:12;;;;;;;1.40;1.17;;;19.60;99.90;;;;;;5067359;28;20199;-67
2022/10/08 10:31:45;;;;;;;1.40;1.30;;;19.40;99.90;;;;;;5076259;28;20237;-67
2022/10/08 10:34:16;;;;;;;1.53;1.43;;;19.10;99.90;;;;;;5070738;28;20672;-66
2022/10/08 10:36:47;;;;;;;1.43;1.17;;;18.90;99.90;;;;;;5070338;28;20865;-67
2022/10/08 10:39:26;;;;;;;1.03;1.00;;;19.10;99.90;;;;;;5077860;28;20588;-67
2022/10/08 10:41:59;;;;;;;1.30;1.20;;;19.20;99.90;;;;;;5064034;28;20696;-66
2022/10/08 10:44:35;;;;;;;1.92;1.65;;;19.20;99.90;;;;;;5061926;28;20199;-66
2022/10/08 10:47:04;;;;;;;1.27;1.20;;;19.30;99.90;;;;;;5065864;28;20206;-66
2022/10/08 10:49:35;;;;;;;1.40;1.23;;;19.10;99.90;;;;;;5076442;28;20621;-66
2022/10/08 10:52:11;;;;;;;1.57;1.20;;;19.20;99.90;;;;;;5083367;28;20591;-66
2022/10/08 10:54:53;;;;;;;5.22;1.45;;;19.20;99.90;;;;;;5086339;28;20293;-64
2022/10/08 10:57:33;;;;;;;1.42;1.20;;;19.20;99.90;;;;;;5067067;28;20199;-67
2022/10/08 11:00:08;;;;;;;1.47;1.37;;;19.30;99.90;;;;;;5071211;28;20226;-66
2022/10/08 11:02:42;;;;;;;2.07;1.43;;;19.30;99.90;;;;;;5068096;28;20226;-67
2022/10/08 11:05:17;;;;;;;1.27;1.20;;;19.50;99.90;;;;;;5068493;28;20207;-62
2022/10/08 11:08:24;;;;;;;1.10;1.10;;;19.40;99.90;;;;;;5067247;28;20285;-67
2022/10/08 11:11:06;;;;;;;1.07;1.07;;;19.40;99.90;;;;;;5061654;28;20200;-66
2022/10/08 11:13:47;;;;;;;2.13;1.40;;;19.30;99.90;;;;;;5071207;28;20233;-67
2022/10/08 11:16:30;;;;;;;1.30;1.30;;;18.90;99.90;;;;;;5090847;28;20214;-67
2022/10/08 11:19:00;;;;;;;1.20;1.20;;;18.90;99.90;;;;;;5086416;28;20697;-67
2022/10/08 11:21:50;;;;;;;1.27;1.20;;;19.20;99.90;;;;;;5085479;28;20232;-66
2022/10/08 11:24:39;;;;;;;1.92;1.23;;;19.40;99.90;;;;;;5080616;28;20282;-66
2022/10/08 11:27:14;;;;;;;1.30;1.20;;;19.30;99.90;;;;;;5083570;28;20262;-68
2022/10/08 11:29:49;;;;;;;1.00;1.00;;;19.50;99.90;;;;;;5087850;28;20202;-68
2022/10/08 11:32:19;;;;;;;1.30;1.20;;;19.60;99.90;;;;;;5078729;28;20230;-67
2022/10/08 11:34:52;;;;;;;1.33;1.23;;;19.50;99.90;;;;;;5082717;28;20249;-66
2022/10/08 11:37:25;;;;;;;1.30;1.20;;;19.20;99.90;;;;;;5069001;28;20199;-65
2022/10/08 11:40:03;;;;;;;1.93;1.33;;;19.00;99.90;;;;;;5083792;28;20231;-66
2022/10/08 11:42:38;;;;;;;1.30;1.20;;;19.10;99.90;;;;;;5075357;28;20313;-68
2022/10/08 11:45:29;;;;;;;1.50;1.30;;;19.30;99.90;;;;;;5080923;28;20268;-66
2022/10/08 11:47:58;;;;;;;1.50;1.40;;;19.50;99.90;;;;;;5065399;28;20573;-66
2022/10/08 11:50:28;;;;;;;1.27;1.17;;;19.50;99.90;;;;;;5067704;28;20661;-69
2022/10/08 11:53:13;;;;;;;4.75;2.90;;;19.60;99.90;;;;;;5076934;28;20237;-63
2022/10/08 11:55:48;;;;;;;30.83;8.02;;;19.80;99.90;;;;;;5068696;28;20445;-66
2022/10/08 11:58:22;;;;;;;1.37;1.27;;;19.60;99.90;;;;;;5068491;28;20211;-65
2022/10/08 12:00:52;;;;;;;0.98;0.95;;;19.70;99.90;;;;;;5075728;28;20833;-65
2022/10/08 12:03:25;;;;;;;1.30;1.10;;;19.60;99.90;;;;;;5060995;28;20448;-64
2022/10/08 12:05:54;;;;;;;0.95;0.90;;;19.40;99.90;;;;;;5060923;28;20200;-64
2022/10/08 12:08:52;;;;;;;1.40;1.30;;;19.50;99.90;;;;;;5079409;28;20281;-66
2022/10/08 12:11:46;;;;;;;0.82;0.82;;;19.50;99.90;;;;;;5084272;28;20206;-66
2022/10/08 12:14:32;;;;;;;1.00;1.00;;;19.30;99.90;;;;;;5072698;28;20204;-65
2022/10/08 12:17:09;;;;;;;1.20;1.10;;;19.30;99.90;;;;;;5080987;28;20212;-64
2022/10/08 12:20:00;;;;;;;0.90;0.90;;;19.30;99.90;;;;;;5060782;28;20253;-65
2022/10/08 12:22:45;;;;;;;1.37;0.97;;;19.20;99.90;;;;;;5053746;28;20289;-64
2022/10/08 12:25:33;;;;;;;0.93;0.93;;;19.20;99.90;;;;;;5060560;28;20242;-63
2022/10/08 12:28:51;;;;;;;1.33;1.00;;;19.50;99.90;;;;;;5057827;28;20256;-66
2022/10/08 12:31:28;;;;;;;1.07;1.07;;;19.70;99.90;;;;;;5049556;28;20192;-65
2022/10/08 12:34:03;;;;;;;1.15;1.15;;;19.80;99.90;;;;;;5069273;28;20213;-66
2022/10/08 12:36:41;;;;;;;1.15;1.08;;;19.70;99.90;;;;;;5069368;28;20566;-66
2022/10/08 12:39:16;;;;;;;1.13;0.90;;;19.70;99.90;;;;;;5069200;28;20230;-66
2022/10/08 12:41:53;;;;;;;1.37;1.27;;;19.60;99.90;;;;;;5072664;28;20698;-65
2022/10/08 12:44:32;;;;;;;0.98;0.98;;;19.40;99.90;;;;;;5064420;28;20203;-64
2022/10/08 12:47:09;;;;;;;1.40;1.30;;;19.50;99.90;;;;;;5070767;28;20207;-65
2022/10/08 12:49:42;;;;;;;1.03;1.00;;;19.30;99.90;;;;;;5072399;28;20199;-64
2022/10/08 12:52:13;;;;;;;1.27;0.83;;;19.20;99.90;;;;;;5074559;28;20227;-65
2022/10/08 12:54:46;;;;;;;1.10;1.00;;;19.40;99.90;;;;;;5068554;28;20643;-64
2022/10/08 12:57:18;;;;;;;0.90;0.90;;;19.40;99.90;;;;;;5068102;28;20196;-64
2022/10/08 12:59:46;;;;;;;1.15;1.10;;;19.40;99.90;;;;;;5067325;28;20203;-64
2022/10/08 13:02:35;;;;;;;0.93;0.90;;;19.60;99.90;;;;;;5069509;28;20219;-63
2022/10/08 13:05:03;;;;;;;0.87;0.87;;;19.90;99.90;;;;;;5070329;28;20298;-64
2022/10/08 13:07:33;;;;;;;0.80;0.80;;;20.00;99.90;;;;;;5071355;28;20246;-64
2022/10/08 13:10:02;;;;;;;1.08;0.95;;;20.10;99.90;;;;;;5085911;28;20207;-64